Aviation Digital Data Service (ADDS)

Output produced by TAFs form (0921 UTC 13 December 2017)
found at http://www.aviationweather.gov/adds/tafs/
 
KCHS 130856Z 30006KT 10SM CLR 03/M03 A2995 RMK AO2 SLP139 T00281033 51017 $
KCHS 130522Z 1306/1406 32010KT P6SM SKC 
     FM131000 31007KT P6SM SKC 
     FM131900 24006KT P6SM SKC